Time;durP1;ratioP1;P1;durP2;ratioP2;P2;SDS_P1;SDS_P2;PMS_P1;PMS_P2;Temp;Humidity;BMP_temperature;BMP_pressure;BME280_temperature;BME280_humidity;BME280_pressure;Samples;Min_cycle;Max_cycle;Signal;HPM_P1;HPM_P2
2021/12/11 00:02:01;;;;;;;;;;;3.30;36.80;;;;;;5106102;28;19919;-72
2021/12/11 00:04:31;;;;;;;;;;;3.40;37.60;;;;;;5109634;27;19963;-72
2021/12/11 00:07:04;;;;;;;;;;;3.30;37.80;;;;;;5085813;28;19920;-72
2021/12/11 00:09:35;;;;;;;;;;;3.20;38.30;;;;;;5077582;28;19920;-75
2021/12/11 00:12:07;;;;;;;;;;;3.20;40.00;;;;;;5107836;27;19930;-71
2021/12/11 00:14:38;;;;;;;;;;;3.10;40.40;;;;;;5108187;27;19959;-71
2021/12/11 00:17:06;;;;;;;;;;;2.80;39.30;;;;;;5102703;27;19928;-72
2021/12/11 00:19:36;;;;;;;;;;;2.70;40.30;;;;;;5101378;27;19924;-73
2021/12/11 00:22:05;;;;;;;;;;;2.70;40.30;;;;;;5108320;27;19924;-73
2021/12/11 00:24:36;;;;;;;;;;;2.60;40.20;;;;;;5104939;28;19932;-73
2021/12/11 00:27:06;;;;;;;;;;;2.50;41.30;;;;;;5108058;27;20004;-75
2021/12/11 00:29:35;;;;;;;;;;;2.50;41.30;;;;;;5097583;27;19920;-73
2021/12/11 00:32:06;;;;;;;;;;;2.40;41.50;;;;;;5104434;28;19955;-73
2021/12/11 00:34:39;;;;;;;;;;;2.40;41.80;;;;;;5104189;28;19919;-74
2021/12/11 00:37:12;;;;;;;;;;;2.30;42.00;;;;;;5103674;27;20022;-73
2021/12/11 00:39:46;;;;;;;;;;;2.20;42.90;;;;;;5100353;27;19920;-74
2021/12/11 00:42:14;;;;;;;;;;;2.20;43.40;;;;;;5089673;28;20027;-74
2021/12/11 00:44:43;;;;;;;;;;;2.20;43.90;;;;;;5104438;28;20074;-73
2021/12/11 00:47:11;;;;;;;;;;;2.10;43.90;;;;;;5080945;28;20401;-76
2021/12/11 00:49:51;;;;;;;;;;;2.20;44.60;;;;;;5099144;28;19920;-76
2021/12/11 00:52:26;;;;;;;;;;;2.10;44.40;;;;;;5100955;28;20405;-75
2021/12/11 00:54:56;;;;;;;;;;;2.10;44.10;;;;;;5083073;28;19923;-74
2021/12/11 00:57:24;;;;;;;;;;;2.00;43.70;;;;;;5104431;27;20581;-74
2021/12/11 00:59:59;;;;;;;;;;;2.10;44.60;;;;;;5085169;28;20455;-74
2021/12/11 01:02:31;;;;;;;;;;;2.10;44.40;;;;;;5100085;28;19946;-73
2021/12/11 01:04:59;;;;;;;;;;;2.10;44.80;;;;;;5107139;27;19954;-73
2021/12/11 01:07:31;;;;;;;;;;;2.00;44.80;;;;;;5101092;27;19920;-74
2021/12/11 01:10:05;;;;;;;;;;;2.00;44.60;;;;;;5100019;28;20432;-74
2021/12/11 01:12:42;;;;;;;;;;;2.00;44.90;;;;;;5104222;28;19920;-74
2021/12/11 01:15:13;;;;;;;;;;;2.00;45.30;;;;;;5101791;28;19971;-72
2021/12/11 01:17:47;;;;;;;;;;;2.00;45.50;;;;;;5083641;28;20018;-73
2021/12/11 01:20:18;;;;;;;;;;;2.00;45.50;;;;;;5101359;28;20006;-73
2021/12/11 01:22:49;;;;;;;;;;;2.00;45.60;;;;;;5085453;28;19990;-73
2021/12/11 01:25:23;;;;;;;;;;;2.10;45.70;;;;;;5068765;28;20642;-73
2021/12/11 01:27:54;;;;;;;;;;;2.10;45.70;;;;;;5100023;28;20576;-73
2021/12/11 01:30:23;;;;;;;;;;;2.10;45.80;;;;;;5098476;28;20379;-73
2021/12/11 01:32:51;;;;;;;;;;;2.00;46.10;;;;;;5102002;28;19927;-73
2021/12/11 01:35:20;;;;;;;;;;;2.00;45.50;;;;;;5086157;28;20367;-73
2021/12/11 01:37:49;;;;;;;;;;;2.00;46.10;;;;;;5101823;28;20054;-73
2021/12/11 01:40:20;;;;;;;;;;;2.00;46.00;;;;;;5104054;28;20186;-73
2021/12/11 01:42:49;;;;;;;;;;;2.00;45.90;;;;;;5082912;28;19989;-73
2021/12/11 01:45:17;;;;;;;;;;;2.00;45.70;;;;;;5098668;28;19927;-73
2021/12/11 01:47:47;;;;;;;;;;;2.00;46.10;;;;;;5104040;28;19950;-73
2021/12/11 01:50:16;;;;;;;;;;;2.00;46.30;;;;;;5100019;28;20353;-74
2021/12/11 01:52:49;;;;;;;;;;;2.00;46.30;;;;;;5084569;28;20375;-73
2021/12/11 01:55:22;;;;;;;;;;;2.00;46.20;;;;;;5103279;28;19924;-73
2021/12/11 01:57:53;;;;;;;;;;;2.10;46.50;;;;;;5102342;28;19998;-73
2021/12/11 02:00:23;;;;;;;;;;;2.00;46.20;;;;;;5099073;28;20034;-72
2021/12/11 02:02:53;;;;;;;;;;;2.00;46.30;;;;;;5100832;28;20010;-73
2021/12/11 02:05:24;;;;;;;;;;;2.00;46.00;;;;;;5106434;28;19924;-73
2021/12/11 02:07:54;;;;;;;;;;;2.00;46.10;;;;;;5081042;28;19920;-73
2021/12/11 02:10:25;;;;;;;;;;;2.00;45.80;;;;;;5100953;28;20390;-74
2021/12/11 02:12:56;;;;;;;;;;;2.00;45.40;;;;;;5105411;28;19924;-74
2021/12/11 02:15:28;;;;;;;;;;;2.00;46.10;;;;;;5102112;28;20015;-74
2021/12/11 02:17:59;;;;;;;;;;;2.10;46.40;;;;;;5101240;28;20295;-74
2021/12/11 02:20:32;;;;;;;;;;;2.10;46.50;;;;;;5102368;28;19928;-73
2021/12/11 02:23:02;;;;;;;;;;;2.00;46.20;;;;;;5103435;28;20325;-73
2021/12/11 02:25:33;;;;;;;;;;;2.00;46.10;;;;;;5102568;28;19926;-73
2021/12/11 02:28:04;;;;;;;;;;;2.00;45.60;;;;;;5098252;28;20378;-73
2021/12/11 02:30:34;;;;;;;;;;;2.00;45.80;;;;;;5068051;28;20535;-73
2021/12/11 02:33:07;;;;;;;;;;;2.10;46.40;;;;;;5103318;27;19928;-72
2021/12/11 02:35:38;;;;;;;;;;;2.00;46.00;;;;;;5105488;28;19961;-72
2021/12/11 02:38:11;;;;;;;;;;;2.00;46.50;;;;;;5103161;28;20006;-73
2021/12/11 02:40:43;;;;;;;;;;;2.10;46.20;;;;;;5104843;28;19920;-73
2021/12/11 02:43:15;;;;;;;;;;;2.10;46.50;;;;;;5109091;27;19919;-73
2021/12/11 02:45:44;;;;;;;;;;;2.00;46.40;;;;;;5102350;28;19951;-73
2021/12/11 02:48:14;;;;;;;;;;;2.10;46.80;;;;;;5105426;27;19932;-73
2021/12/11 02:50:43;;;;;;;;;;;2.00;46.70;;;;;;5082824;28;19924;-73
2021/12/11 02:53:14;;;;;;;;;;;2.10;46.40;;;;;;5108919;28;20003;-73
2021/12/11 02:55:44;;;;;;;;;;;2.10;46.80;;;;;;5087057;28;20002;-73
2021/12/11 02:58:16;;;;;;;;;;;2.00;46.70;;;;;;5104790;27;19963;-73
2021/12/11 03:00:48;;;;;;;;;;;2.10;47.00;;;;;;5102437;28;20622;-73
2021/12/11 03:03:16;;;;;;;;;;;2.10;47.00;;;;;;5107248;28;19920;-73
2021/12/11 03:05:50;;;;;;;;;;;2.10;46.90;;;;;;5103468;28;19946;-73
2021/12/11 03:08:20;;;;;;;;;;;2.10;47.30;;;;;;5104984;27;19932;-73
2021/12/11 03:10:51;;;;;;;;;;;2.20;47.00;;;;;;5100742;28;20101;-73
2021/12/11 03:13:19;;;;;;;;;;;2.20;47.30;;;;;;5101803;27;19923;-73
2021/12/11 03:15:47;;;;;;;;;;;2.20;47.00;;;;;;5106030;28;19992;-73
2021/12/11 03:18:15;;;;;;;;;;;2.20;46.70;;;;;;5101088;27;19966;-73
2021/12/11 03:21:36;;;;;;;;;;;2.20;46.90;;;;;;5104316;27;19931;-73
2021/12/11 03:28:21;;;;;;;;;;;2.20;46.90;;;;;;5103815;27;19927;-73
2021/12/11 03:31:00;;;;;;;;;;;2.20;46.80;;;;;;5105393;28;19954;-73
2021/12/11 03:33:31;;;;;;;;;;;2.20;47.00;;;;;;5107628;27;19951;-73
2021/12/11 03:35:59;;;;;;;;;;;2.30;47.10;;;;;;5084123;28;19923;-73
2021/12/11 03:38:27;;;;;;;;;;;2.30;46.80;;;;;;5098903;28;19963;-73
2021/12/11 03:44:06;;;;;;;;;;;2.30;46.60;;;;;;5103660;28;19919;-73
2021/12/11 03:46:36;;;;;;;;;;;2.20;46.20;;;;;;5102262;28;19923;-74
2021/12/11 03:49:06;;;;;;;;;;;2.30;47.20;;;;;;5102845;27;19919;-73
2021/12/11 03:51:36;;;;;;;;;;;2.30;46.90;;;;;;5107606;27;20010;-73
2021/12/11 03:54:07;;;;;;;;;;;2.30;47.10;;;;;;5104827;28;19919;-73
2021/12/11 03:56:37;;;;;;;;;;;2.30;47.30;;;;;;5103987;28;19946;-73
2021/12/11 03:59:09;;;;;;;;;;;2.30;46.70;;;;;;5102257;27;19924;-73
2021/12/11 04:01:42;;;;;;;;;;;2.30;47.00;;;;;;5105763;27;19928;-74
2021/12/11 04:04:15;;;;;;;;;;;2.30;47.00;;;;;;5105200;28;20302;-72
2021/12/11 04:06:45;;;;;;;;;;;2.30;47.00;;;;;;5101596;28;19966;-72
2021/12/11 04:09:14;;;;;;;;;;;2.30;47.70;;;;;;5082728;28;19930;-72
2021/12/11 04:11:42;;;;;;;;;;;2.40;47.80;;;;;;5104870;28;19920;-72
2021/12/11 04:14:12;;;;;;;;;;;2.30;47.60;;;;;;5087919;28;19920;-73
2021/12/11 04:16:41;;;;;;;;;;;2.40;47.90;;;;;;5082111;28;19998;-73
2021/12/11 04:19:10;;;;;;;;;;;2.30;47.80;;;;;;5081256;28;20383;-72
2021/12/11 04:21:38;;;;;;;;;;;2.40;48.00;;;;;;5104309;27;19920;-73
2021/12/11 04:24:09;;;;;;;;;;;2.30;47.90;;;;;;5107423;28;19942;-73
2021/12/11 04:26:37;;;;;;;;;;;2.30;47.90;;;;;;5104394;28;19927;-73
2021/12/11 04:29:05;;;;;;;;;;;2.30;47.90;;;;;;5061940;28;19920;-72
2021/12/11 04:31:33;;;;;;;;;;;2.40;48.10;;;;;;5107025;28;19942;-73
2021/12/11 04:34:06;;;;;;;;;;;2.40;48.00;;;;;;5101036;28;19920;-73
2021/12/11 04:36:36;;;;;;;;;;;2.40;47.50;;;;;;5079777;28;19923;-73
2021/12/11 04:39:05;;;;;;;;;;;2.40;47.60;;;;;;5100568;28;19967;-73
2021/12/11 04:41:41;;;;;;;;;;;2.30;46.80;;;;;;5102249;27;20383;-73
2021/12/11 04:44:11;;;;;;;;;;;2.30;47.10;;;;;;5104985;27;20011;-73
2021/12/11 04:46:39;;;;;;;;;;;2.40;47.50;;;;;;5100949;27;19947;-73
2021/12/11 04:49:13;;;;;;;;;;;2.30;46.70;;;;;;5099325;27;19927;-71
2021/12/11 04:51:46;;;;;;;;;;;2.30;46.40;;;;;;5102930;27;20379;-71
2021/12/11 04:54:29;;;;;;;;;;;2.30;46.30;;;;;;5108986;27;20415;-71
2021/12/11 04:59:55;;;;;;;;;;;2.40;46.40;;;;;;5082184;28;19920;-72
2021/12/11 05:02:56;;;;;;;;;;;2.30;45.60;;;;;;5102659;27;19995;-72
2021/12/11 05:05:42;;;;;;;;;;;2.30;45.40;;;;;;5101227;28;19920;-72
2021/12/11 05:08:36;;;;;;;;;;;2.30;45.80;;;;;;5097370;28;19977;-73
2021/12/11 05:11:06;;;;;;;;;;;2.40;46.10;;;;;;5100296;27;19919;-72
2021/12/11 05:13:34;;;;;;;;;;;2.30;44.50;;;;;;5104014;28;19920;-72
2021/12/11 05:16:06;;;;;;;;;;;2.30;45.20;;;;;;5101429;28;19923;-72
2021/12/11 05:18:36;;;;;;;;;;;2.30;44.90;;;;;;5101455;28;19920;-72
2021/12/11 05:21:07;;;;;;;;;;;2.30;45.40;;;;;;5101977;28;20027;-72
2021/12/11 05:23:35;;;;;;;;;;;2.30;45.80;;;;;;5102321;28;19927;-72
2021/12/11 05:26:04;;;;;;;;;;;2.30;45.70;;;;;;5082779;28;20015;-72
2021/12/11 05:28:32;;;;;;;;;;;2.30;46.20;;;;;;5100670;27;19970;-72
2021/12/11 05:31:01;;;;;;;;;;;2.20;46.70;;;;;;5099915;28;20434;-73
2021/12/11 05:33:28;;;;;;;;;;;2.20;46.60;;;;;;5105960;28;19928;-72
2021/12/11 05:35:56;;;;;;;;;;;2.20;46.90;;;;;;5082535;28;20356;-73
2021/12/11 05:38:26;;;;;;;;;;;2.10;46.40;;;;;;5096498;28;19975;-73
2021/12/11 05:40:55;;;;;;;;;;;2.20;47.00;;;;;;5094035;28;19932;-73
2021/12/11 05:43:23;;;;;;;;;;;2.20;47.00;;;;;;5100636;28;20371;-74
2021/12/11 05:45:51;;;;;;;;;;;2.20;47.20;;;;;;5078885;28;19955;-73
2021/12/11 05:48:19;;;;;;;;;;;2.30;47.50;;;;;;5097156;28;19920;-74
2021/12/11 05:50:50;;;;;;;;;;;2.30;47.20;;;;;;5096612;28;19928;-74
2021/12/11 05:53:18;;;;;;;;;;;2.20;46.50;;;;;;5065639;28;19920;-74
2021/12/11 05:55:48;;;;;;;;;;;2.20;46.20;;;;;;5103349;28;19923;-73
2021/12/11 05:58:25;;;;;;;;;;;2.30;46.60;;;;;;5098816;28;20581;-74
2021/12/11 06:00:54;;;;;;;;;;;2.30;46.40;;;;;;5101490;28;19928;-75
2021/12/11 06:03:23;;;;;;;;;;;2.30;46.60;;;;;;5102700;28;19946;-74
2021/12/11 06:05:50;;;;;;;;;;;2.30;46.30;;;;;;5100538;28;20383;-74
2021/12/11 06:08:18;;;;;;;;;;;2.30;45.90;;;;;;5102880;28;20010;-74
2021/12/11 06:10:47;;;;;;;;;;;2.30;45.60;;;;;;5105019;27;20290;-74
2021/12/11 06:13:16;;;;;;;;;;;2.20;45.40;;;;;;5106030;27;20391;-74
2021/12/11 06:15:44;;;;;;;;;;;2.30;45.80;;;;;;5103818;28;19926;-75
2021/12/11 06:18:17;;;;;;;;;;;2.20;45.10;;;;;;5103180;28;19923;-74
2021/12/11 06:20:47;;;;;;;;;;;2.30;45.20;;;;;;5102710;28;19977;-73
2021/12/11 06:23:16;;;;;;;;;;;2.30;45.40;;;;;;5112632;27;19923;-74
2021/12/11 06:25:45;;;;;;;;;;;2.30;45.00;;;;;;5099466;27;19920;-74
2021/12/11 06:28:14;;;;;;;;;;;2.30;44.90;;;;;;5105852;27;19928;-74
2021/12/11 06:30:42;;;;;;;;;;;2.20;44.50;;;;;;5102856;27;19926;-74
2021/12/11 06:33:10;;;;;;;;;;;2.30;44.10;;;;;;5106778;28;20109;-74
2021/12/11 06:35:39;;;;;;;;;;;2.30;44.00;;;;;;5106908;28;20006;-75
2021/12/11 06:38:09;;;;;;;;;;;2.20;44.10;;;;;;5106179;28;19919;-75
2021/12/11 06:40:37;;;;;;;;;;;2.20;43.90;;;;;;5100181;28;19920;-74
2021/12/11 06:43:05;;;;;;;;;;;2.20;44.10;;;;;;5108973;28;20333;-74
2021/12/11 06:45:34;;;;;;;;;;;2.30;44.30;;;;;;5088235;28;19924;-74
2021/12/11 06:48:02;;;;;;;;;;;2.20;43.90;;;;;;5101427;27;19923;-74
2021/12/11 06:50:30;;;;;;;;;;;2.20;44.20;;;;;;5104659;28;20002;-74
2021/12/11 06:52:59;;;;;;;;;;;2.20;44.50;;;;;;5105494;28;19943;-74
2021/12/11 06:55:27;;;;;;;;;;;2.20;44.70;;;;;;5107240;27;19919;-75
2021/12/11 06:57:55;;;;;;;;;;;2.20;44.20;;;;;;5102896;28;20679;-75
2021/12/11 07:00:29;;;;;;;;;;;2.20;44.30;;;;;;5072510;28;20671;-75
2021/12/11 07:02:59;;;;;;;;;;;2.20;44.00;;;;;;5107244;27;19967;-75
2021/12/11 07:05:28;;;;;;;;;;;2.20;43.90;;;;;;5104582;28;19938;-75
2021/12/11 07:07:58;;;;;;;;;;;2.20;43.70;;;;;;5107212;27;19927;-74
2021/12/11 07:10:26;;;;;;;;;;;2.20;43.90;;;;;;5102666;28;20018;-75
2021/12/11 07:12:54;;;;;;;;;;;2.30;44.60;;;;;;5106858;28;19935;-74
2021/12/11 07:15:25;;;;;;;;;;;2.20;44.30;;;;;;5106058;28;19955;-74
2021/12/11 07:17:54;;;;;;;;;;;2.30;44.80;;;;;;5108435;27;19927;-74
2021/12/11 07:20:24;;;;;;;;;;;2.30;45.10;;;;;;5102483;28;19928;-74
2021/12/11 07:23:00;;;;;;;;;;;2.30;44.70;;;;;;5105867;27;19962;-75
2021/12/11 07:25:32;;;;;;;;;;;2.30;44.80;;;;;;5082680;28;20454;-74
2021/12/11 07:28:03;;;;;;;;;;;2.30;44.80;;;;;;5073086;27;20027;-75
2021/12/11 07:30:33;;;;;;;;;;;2.30;45.20;;;;;;5100746;28;20371;-75
2021/12/11 07:33:02;;;;;;;;;;;2.30;45.20;;;;;;5085989;28;19924;-75
2021/12/11 07:35:31;;;;;;;;;;;2.40;45.20;;;;;;5103225;28;19999;-75
2021/12/11 07:37:59;;;;;;;;;;;2.40;45.00;;;;;;5083002;27;19923;-75
2021/12/11 07:40:30;;;;;;;;;;;2.30;44.30;;;;;;5102829;28;20379;-74
2021/12/11 07:43:00;;;;;;;;;;;2.30;44.70;;;;;;5104346;27;20014;-75
2021/12/11 07:45:28;;;;;;;;;;;2.30;45.20;;;;;;5104467;27;19923;-75
2021/12/11 07:47:56;;;;;;;;;;;2.30;44.90;;;;;;5101319;27;20014;-74
2021/12/11 07:50:24;;;;;;;;;;;2.30;44.20;;;;;;5097810;28;19928;-76
2021/12/11 07:52:54;;;;;;;;;;;2.30;44.50;;;;;;5109230;27;19927;-75
2021/12/11 07:55:22;;;;;;;;;;;2.40;44.80;;;;;;5104508;28;19919;-75
2021/12/11 07:57:51;;;;;;;;;;;2.40;44.50;;;;;;5083079;28;20385;-74
2021/12/11 08:00:20;;;;;;;;;;;2.40;44.60;;;;;;5075618;28;20371;-75
2021/12/11 08:02:48;;;;;;;;;;;2.40;44.10;;;;;;5106278;28;19924;-76
2021/12/11 08:05:17;;;;;;;;;;;2.40;44.10;;;;;;5081346;28;19923;-74
2021/12/11 08:07:45;;;;;;;;;;;2.40;43.30;;;;;;5099935;28;20386;-73
2021/12/11 08:10:18;;;;;;;;;;;2.40;43.90;;;;;;5100256;28;19935;-74
2021/12/11 08:12:46;;;;;;;;;;;2.40;42.90;;;;;;5101427;27;19928;-74
2021/12/11 08:15:16;;;;;;;;;;;2.40;42.80;;;;;;5094248;28;19928;-75
2021/12/11 08:17:50;;;;;;;;;;;2.40;42.30;;;;;;5081163;28;20000;-73
2021/12/11 08:20:18;;;;;;;;;;;2.40;42.90;;;;;;5103194;28;19919;-74
2021/12/11 08:22:47;;;;;;;;;;;2.40;41.40;;;;;;5102381;28;19919;-75
2021/12/11 08:25:18;;;;;;;;;;;2.30;42.20;;;;;;5083631;28;19923;-74
2021/12/11 08:27:47;;;;;;;;;;;2.30;42.70;;;;;;5094179;27;19932;-74
2021/12/11 08:30:16;;;;;;;;;;;2.40;43.30;;;;;;5102582;27;20322;-74
2021/12/11 08:32:44;;;;;;;;;;;2.40;43.70;;;;;;5102652;27;19923;-73
2021/12/11 08:35:13;;;;;;;;;;;2.40;43.50;;;;;;5099870;28;19930;-75
2021/12/11 08:37:43;;;;;;;;;;;2.40;43.70;;;;;;5105339;28;19935;-75
2021/12/11 08:40:12;;;;;;;;;;;2.40;43.90;;;;;;5099049;27;20268;-74
2021/12/11 08:42:42;;;;;;;;;;;2.40;43.90;;;;;;5105771;28;19920;-74
2021/12/11 08:45:13;;;;;;;;;;;2.50;44.20;;;;;;5104009;28;20260;-74
2021/12/11 08:47:42;;;;;;;;;;;2.50;44.30;;;;;;5077845;28;20367;-74
2021/12/11 08:50:11;;;;;;;;;;;2.50;44.10;;;;;;5103985;27;19924;-75
2021/12/11 08:52:42;;;;;;;;;;;2.50;44.10;;;;;;5101914;28;20022;-75
2021/12/11 08:55:16;;;;;;;;;;;2.50;44.20;;;;;;5100605;28;20057;-75
2021/12/11 08:57:45;;;;;;;;;;;2.60;44.30;;;;;;5099480;28;19927;-74
2021/12/11 09:00:16;;;;;;;;;;;2.60;43.50;;;;;;5096895;28;20011;-74
2021/12/11 09:02:46;;;;;;;;;;;2.70;43.80;;;;;;5103947;27;19938;-74
2021/12/11 09:05:17;;;;;;;;;;;2.70;43.90;;;;;;5101513;27;19981;-75
2021/12/11 09:07:47;;;;;;;;;;;2.80;43.70;;;;;;5099849;28;20042;-73
2021/12/11 09:10:17;;;;;;;;;;;2.80;43.30;;;;;;5078765;28;20374;-73
2021/12/11 09:12:49;;;;;;;;;;;2.80;43.20;;;;;;5057407;28;19926;-74
2021/12/11 09:15:19;;;;;;;;;;;2.80;42.20;;;;;;5101754;27;20095;-76
2021/12/11 09:17:48;;;;;;;;;;;2.70;41.40;;;;;;5087286;28;19924;-74
2021/12/11 09:20:21;;;;;;;;;;;2.80;41.90;;;;;;5098443;27;19920;-73
2021/12/11 09:22:56;;;;;;;;;;;2.80;41.00;;;;;;5085414;28;19928;-76
2021/12/11 09:25:29;;;;;;;;;;;2.80;41.00;;;;;;5102211;27;20019;-76
2021/12/11 09:28:01;;;;;;;;;;;2.90;41.50;;;;;;5082341;28;19955;-75
2021/12/11 09:30:30;;;;;;;;;;;2.90;40.50;;;;;;5099717;28;20570;-74
2021/12/11 09:32:59;;;;;;;;;;;2.90;40.50;;;;;;5102180;28;19995;-75
2021/12/11 09:35:29;;;;;;;;;;;3.00;40.60;;;;;;5101467;28;20477;-75
2021/12/11 09:37:58;;;;;;;;;;;2.90;40.30;;;;;;5098751;27;20339;-74
2021/12/11 09:40:31;;;;;;;;;;;2.90;40.40;;;;;;5100348;27;20291;-75
2021/12/11 09:42:59;;;;;;;;;;;3.00;38.00;;;;;;5082556;28;19934;-75
2021/12/11 09:45:30;;;;;;;;;;;3.00;39.40;;;;;;5085232;28;19920;-76
2021/12/11 09:48:00;;;;;;;;;;;3.00;37.40;;;;;;5102201;28;20362;-75
2021/12/11 09:50:32;;;;;;;;;;;3.10;38.60;;;;;;5097962;28;20463;-76
2021/12/11 09:53:00;;;;;;;;;;;3.20;38.00;;;;;;5101665;28;20130;-75
2021/12/11 09:55:31;;;;;;;;;;;3.20;36.20;;;;;;5099323;28;20373;-74
2021/12/11 09:58:01;;;;;;;;;;;3.30;36.60;;;;;;5100177;28;20404;-75
2021/12/11 10:00:33;;;;;;;;;;;3.30;34.50;;;;;;5079796;28;19927;-75
2021/12/11 10:03:02;;;;;;;;;;;3.40;36.10;;;;;;5082198;28;19923;-75
2021/12/11 10:05:36;;;;;;;;;;;3.40;33.30;;;;;;5099303;28;19981;-75
2021/12/11 10:08:26;;;;;;;;;;;3.40;34.50;;;;;;5099338;28;19923;-75
2021/12/11 10:10:58;;;;;;;;;;;3.40;32.50;;;;;;5101388;28;19923;-74
2021/12/11 10:13:26;;;;;;;;;;;3.50;34.30;;;;;;5105802;28;19923;-74
2021/12/11 10:15:56;;;;;;;;;;;3.50;34.30;;;;;;5099155;28;19927;-74
2021/12/11 10:18:25;;;;;;;;;;;3.40;30.20;;;;;;5099487;28;19924;-74
2021/12/11 10:20:55;;;;;;;;;;;3.40;31.60;;;;;;5100758;28;19920;-75
2021/12/11 10:23:26;;;;;;;;;;;3.40;30.50;;;;;;5082098;28;20312;-75
2021/12/11 10:25:56;;;;;;;;;;;3.50;31.10;;;;;;5102804;28;19965;-75
2021/12/11 10:28:27;;;;;;;;;;;3.60;31.40;;;;;;5080747;28;19919;-75
2021/12/11 10:30:58;;;;;;;;;;;3.60;29.10;;;;;;5100310;28;20386;-75
2021/12/11 10:33:28;;;;;;;;;;;3.60;29.20;;;;;;5103971;28;19928;-75
2021/12/11 10:35:58;;;;;;;;;;;3.60;28.60;;;;;;5100282;28;20372;-75
2021/12/11 10:38:26;;;;;;;;;;;3.70;27.60;;;;;;5079427;28;19960;-75
2021/12/11 10:41:11;;;;;;;;;;;3.70;28.10;;;;;;5103016;28;20012;-74
2021/12/11 10:43:42;;;;;;;;;;;3.60;27.40;;;;;;5101796;28;20007;-74
2021/12/11 10:46:15;;;;;;;;;;;3.70;27.10;;;;;;5100370;28;19923;-74
2021/12/11 10:48:44;;;;;;;;;;;3.70;26.30;;;;;;5098504;28;20762;-73
2021/12/11 10:51:15;;;;;;;;;;;3.80;26.10;;;;;;5102835;28;19920;-73
2021/12/11 10:53:46;;;;;;;;;;;3.80;25.60;;;;;;5100241;28;19927;-73
2021/12/11 10:56:15;;;;;;;;;;;3.80;26.30;;;;;;5103633;28;20404;-73
2021/12/11 10:58:46;;;;;;;;;;;3.80;24.60;;;;;;5098782;27;21386;-73
2021/12/11 11:01:16;;;;;;;;;;;3.80;25.60;;;;;;5068752;27;19926;-73
2021/12/11 11:03:47;;;;;;;;;;;4.00;25.80;;;;;;5112456;27;19988;-74
2021/12/11 11:06:16;;;;;;;;;;;3.90;23.30;;;;;;5089162;28;20034;-73
2021/12/11 11:08:47;;;;;;;;;;;3.90;24.70;;;;;;5085697;28;20395;-75
2021/12/11 11:11:18;;;;;;;;;;;4.00;23.40;;;;;;5089664;28;20371;-76
2021/12/11 11:13:47;;;;;;;;;;;4.00;23.30;;;;;;5066764;28;19923;-76
2021/12/11 11:16:17;;;;;;;;;;;4.10;22.90;;;;;;5102711;28;19919;-76
2021/12/11 11:18:46;;;;;;;;;;;4.00;22.40;;;;;;5091870;27;19928;-75
2021/12/11 11:21:16;;;;;;;;;;;4.20;22.50;;;;;;5096213;27;19920;-76
2021/12/11 11:23:45;;;;;;;;;;;4.10;20.80;;;;;;5102849;28;19977;-75
2021/12/11 11:26:16;;;;;;;;;;;4.00;21.50;;;;;;5086856;28;19919;-76
2021/12/11 11:28:44;;;;;;;;;;;3.90;19.50;;;;;;5082299;27;19928;-75
2021/12/11 11:31:14;;;;;;;;;;;4.10;20.10;;;;;;5084948;28;19932;-74
2021/12/11 11:33:45;;;;;;;;;;;4.20;21.90;;;;;;5108545;27;19938;-75
2021/12/11 11:36:14;;;;;;;;;;;4.20;19.70;;;;;;5086284;28;19924;-76
2021/12/11 11:38:44;;;;;;;;;;;4.20;18.30;;;;;;5102815;27;19923;-76
2021/12/11 11:41:13;;;;;;;;;;;4.20;18.50;;;;;;5070166;28;20360;-74
2021/12/11 11:43:42;;;;;;;;;;;4.10;18.10;;;;;;5079668;28;19973;-75
2021/12/11 11:46:11;;;;;;;;;;;4.30;18.50;;;;;;5104492;28;19931;-76
2021/12/11 11:48:44;;;;;;;;;;;4.10;16.00;;;;;;5075937;28;19928;-77
2021/12/11 11:51:18;;;;;;;;;;;4.10;16.80;;;;;;5084607;28;19949;-75
2021/12/11 11:53:46;;;;;;;;;;;4.10;18.10;;;;;;5089505;27;20263;-76
2021/12/11 11:56:17;;;;;;;;;;;4.10;18.00;;;;;;5084225;28;19923;-75
2021/12/11 11:58:45;;;;;;;;;;;4.10;19.00;;;;;;5100729;27;20664;-76
2021/12/11 12:01:16;;;;;;;;;;;3.90;17.80;;;;;;5086929;28;19930;-75
2021/12/11 12:03:46;;;;;;;;;;;3.80;18.80;;;;;;5103018;27;19919;-76
2021/12/11 12:06:22;;;;;;;;;;;3.80;18.80;;;;;;5101514;28;19927;-76
2021/12/11 12:08:52;;;;;;;;;;;3.80;19.50;;;;;;5082769;28;19927;-75
2021/12/11 12:11:20;;;;;;;;;;;3.80;19.60;;;;;;5104380;28;19961;-75
2021/12/11 12:13:48;;;;;;;;;;;3.70;18.10;;;;;;5082280;28;19940;-75
2021/12/11 12:16:28;;;;;;;;;;;3.70;18.80;;;;;;5088148;28;19920;-75
2021/12/11 12:18:56;;;;;;;;;;;3.70;18.80;;;;;;5076020;28;20272;-75
2021/12/11 12:21:24;;;;;;;;;;;3.70;18.80;;;;;;5104307;27;19988;-75
2021/12/11 12:23:53;;;;;;;;;;;3.60;17.80;;;;;;5087472;28;19963;-75
2021/12/11 12:26:23;;;;;;;;;;;3.80;18.70;;;;;;5077797;28;20012;-75
2021/12/11 12:28:52;;;;;;;;;;;3.90;17.80;;;;;;5085338;28;19931;-75
2021/12/11 12:31:21;;;;;;;;;;;3.90;16.80;;;;;;5098133;27;19946;-75
2021/12/11 12:33:50;;;;;;;;;;;3.90;17.20;;;;;;5099424;28;19924;-75
2021/12/11 12:36:18;;;;;;;;;;;4.10;16.80;;;;;;5084771;28;19920;-76
2021/12/11 12:38:47;;;;;;;;;;;4.10;15.60;;;;;;5097793;28;19932;-75
2021/12/11 12:41:21;;;;;;;;;;;4.10;15.60;;;;;;5081776;28;19985;-75
2021/12/11 12:44:16;;;;;;;;;;;4.00;15.50;;;;;;5099944;28;19928;-75
2021/12/11 12:47:03;;;;;;;;;;;4.00;15.10;;;;;;5085038;28;20294;-76
2021/12/11 12:49:33;;;;;;;;;;;4.00;14.90;;;;;;5093669;28;19964;-76
2021/12/11 12:52:05;;;;;;;;;;;3.80;15.00;;;;;;5102943;28;19928;-75
2021/12/11 12:54:36;;;;;;;;;;;3.80;15.30;;;;;;5100189;28;19920;-76
2021/12/11 12:57:13;;;;;;;;;;;3.70;15.20;;;;;;5101606;28;19941;-76
2021/12/11 12:59:44;;;;;;;;;;;3.70;15.30;;;;;;5078207;28;19966;-76
2021/12/11 13:02:17;;;;;;;;;;;3.70;15.00;;;;;;5101035;28;19926;-76
2021/12/11 13:04:47;;;;;;;;;;;3.70;14.20;;;;;;5089871;28;19973;-76
2021/12/11 13:07:15;;;;;;;;;;;3.70;15.20;;;;;;5082270;28;20293;-75
2021/12/11 13:09:44;;;;;;;;;;;3.80;14.70;;;;;;5095835;28;19919;-74
2021/12/11 13:12:16;;;;;;;;;;;3.80;14.20;;;;;;5104478;28;19981;-74
2021/12/11 13:14:45;;;;;;;;;;;3.80;14.30;;;;;;5081605;28;19924;-74
2021/12/11 13:17:13;;;;;;;;;;;3.80;15.40;;;;;;5100245;28;19959;-75
2021/12/11 13:19:43;;;;;;;;;;;3.90;15.40;;;;;;5093486;27;19966;-74
2021/12/11 13:22:16;;;;;;;;;;;3.80;14.30;;;;;;5098419;28;19920;-75
2021/12/11 13:24:49;;;;;;;;;;;3.80;14.00;;;;;;5099366;27;19920;-77
2021/12/11 13:27:19;;;;;;;;;;;3.80;14.20;;;;;;5085817;28;19963;-75
2021/12/11 13:29:52;;;;;;;;;;;3.80;14.60;;;;;;5094399;27;19931;-76
2021/12/11 13:32:21;;;;;;;;;;;3.90;14.40;;;;;;5049367;28;19958;-75
2021/12/11 13:34:51;;;;;;;;;;;4.00;13.70;;;;;;5094493;28;19927;-74
2021/12/11 13:37:20;;;;;;;;;;;3.90;12.70;;;;;;5099426;28;19928;-75
2021/12/11 13:39:49;;;;;;;;;;;3.90;13.50;;;;;;5092294;28;19937;-75
2021/12/11 13:42:20;;;;;;;;;;;3.90;12.50;;;;;;5099286;28;19919;-75
2021/12/11 13:44:50;;;;;;;;;;;3.80;13.00;;;;;;5096249;28;19924;-75
2021/12/11 13:47:21;;;;;;;;;;;3.90;13.20;;;;;;5099049;28;19930;-75
2021/12/11 13:49:50;;;;;;;;;;;3.80;13.30;;;;;;5075508;28;20403;-75
2021/12/11 13:52:19;;;;;;;;;;;3.80;12.70;;;;;;5094693;28;19999;-76
2021/12/11 13:54:47;;;;;;;;;;;3.80;13.10;;;;;;5095190;28;19920;-75
2021/12/11 13:57:23;;;;;;;;;;;3.90;11.90;;;;;;5099696;28;20363;-76
2021/12/11 13:59:54;;;;;;;;;;;3.90;12.40;;;;;;5080603;28;20344;-74
2021/12/11 14:02:22;;;;;;;;;;;4.10;13.10;;;;;;5086716;28;19930;-74
2021/12/11 14:04:50;;;;;;;;;;;4.10;12.00;;;;;;5082616;28;19927;-74
2021/12/11 14:07:21;;;;;;;;;;;4.10;12.00;;;;;;5101668;28;19919;-74
2021/12/11 14:09:51;;;;;;;;;;;4.00;11.30;;;;;;5097113;28;20466;-75
2021/12/11 14:12:20;;;;;;;;;;;4.10;11.40;;;;;;5099262;28;19979;-74
2021/12/11 14:14:48;;;;;;;;;;;4.10;11.30;;;;;;5102155;28;20363;-74
2021/12/11 14:17:18;;;;;;;;;;;3.90;11.30;;;;;;5085117;28;20718;-73
2021/12/11 14:19:46;;;;;;;;;;;3.90;12.20;;;;;;5094732;28;19988;-73
2021/12/11 14:22:16;;;;;;;;;;;3.90;12.40;;;;;;5105846;28;19961;-75
2021/12/11 14:24:44;;;;;;;;;;;4.00;12.50;;;;;;5101430;28;19920;-75
2021/12/11 14:27:14;;;;;;;;;;;3.90;12.70;;;;;;5103220;28;19974;-73
2021/12/11 14:29:45;;;;;;;;;;;3.90;12.20;;;;;;5084150;28;20010;-74
2021/12/11 14:32:14;;;;;;;;;;;3.90;12.50;;;;;;5103052;28;19924;-74
2021/12/11 14:34:46;;;;;;;;;;;3.90;12.60;;;;;;5105560;27;19919;-74
2021/12/11 14:37:15;;;;;;;;;;;3.90;13.30;;;;;;5103426;28;19920;-73
2021/12/11 14:39:47;;;;;;;;;;;3.90;12.50;;;;;;5081058;27;20031;-74
2021/12/11 14:42:16;;;;;;;;;;;3.90;12.30;;;;;;5103310;28;20014;-75
2021/12/11 14:44:44;;;;;;;;;;;3.90;11.90;;;;;;5097035;28;20019;-75
2021/12/11 14:47:14;;;;;;;;;;;3.80;12.70;;;;;;5109530;27;19924;-74
2021/12/11 14:49:45;;;;;;;;;;;3.90;13.10;;;;;;5102573;28;19980;-73
2021/12/11 14:52:14;;;;;;;;;;;3.90;13.10;;;;;;5106574;28;19924;-74
2021/12/11 14:54:43;;;;;;;;;;;3.90;13.00;;;;;;5104609;28;20441;-75
2021/12/11 14:57:15;;;;;;;;;;;3.80;12.60;;;;;;5088709;28;20307;-74
2021/12/11 14:59:45;;;;;;;;;;;3.80;12.90;;;;;;5095819;28;19920;-74
2021/12/11 15:02:15;;;;;;;;;;;3.80;12.70;;;;;;5104638;28;19928;-74